Time;durP1;ratioP1;P1;durP2;ratioP2;P2;SDS_P1;SDS_P2;PMS_P1;PMS_P2;Temp;Humidity;BMP_temperature;BMP_pressure;BME280_temperature;BME280_humidity;BME280_pressure;Samples;Min_cycle;Max_cycle;Signal;HPM_P1;HPM_P2
2021/04/11 00:00:32;;;;;;;1.52;1.42;;;22.20;70.60;;;;;;5022256;28;20030;-70
2021/04/11 00:02:59;;;;;;;1.65;1.52;;;22.20;70.70;;;;;;5020029;28;20045;-67
2021/04/11 00:05:31;;;;;;;2.65;1.45;;;22.20;70.70;;;;;;5019028;28;20050;-68
2021/04/11 00:07:58;;;;;;;3.05;1.30;;;22.10;70.80;;;;;;5022723;28;20021;-68
2021/04/11 00:10:29;;;;;;;2.90;1.60;;;22.20;70.90;;;;;;5020845;28;20018;-67
2021/04/11 00:12:56;;;;;;;3.00;1.63;;;22.10;70.90;;;;;;5017978;28;20025;-67
2021/04/11 00:15:23;;;;;;;2.05;1.85;;;22.10;71.00;;;;;;5024612;28;20032;-66
2021/04/11 00:17:49;;;;;;;3.22;1.55;;;22.20;71.00;;;;;;5020214;28;20060;-69
2021/04/11 00:20:16;;;;;;;1.63;1.52;;;22.10;71.00;;;;;;5022376;28;20128;-67
2021/04/11 00:22:46;;;;;;;5.55;2.03;;;22.10;71.10;;;;;;5019505;28;20025;-67
2021/04/11 00:25:21;;;;;;;2.88;1.85;;;22.10;71.10;;;;;;5024388;28;20030;-67
2021/04/11 00:27:47;;;;;;;4.28;1.65;;;22.10;71.20;;;;;;5019799;28;20083;-68
2021/04/11 00:30:16;;;;;;;4.95;1.42;;;22.10;71.20;;;;;;5035846;28;20431;-70
2021/04/11 00:32:42;;;;;;;2.80;1.70;;;22.10;71.30;;;;;;5026378;28;20049;-69
2021/04/11 00:35:09;;;;;;;2.22;1.75;;;22.10;71.30;;;;;;5022567;28;20103;-74
2021/04/11 00:37:36;;;;;;;3.55;1.70;;;22.10;71.40;;;;;;5019060;28;20441;-67
2021/04/11 00:40:09;;;;;;;6.13;2.28;;;22.10;71.50;;;;;;5018599;28;20041;-67
2021/04/11 00:42:43;;;;;;;2.05;1.90;;;22.10;71.50;;;;;;5019807;28;20581;-67
2021/04/11 00:45:26;;;;;;;3.28;1.75;;;22.10;71.60;;;;;;5019567;28;20018;-67
2021/04/11 00:47:54;;;;;;;2.00;1.88;;;22.10;71.70;;;;;;5020100;28;20121;-67
2021/04/11 00:50:22;;;;;;;3.63;1.95;;;22.10;71.70;;;;;;5025440;28;20026;-67
2021/04/11 00:52:49;;;;;;;4.35;2.13;;;22.00;71.70;;;;;;5018960;28;20026;-67
2021/04/11 00:55:55;;;;;;;2.40;2.20;;;22.00;71.80;;;;;;5019134;28;20296;-67
2021/04/11 00:59:05;;;;;;;3.78;2.38;;;22.00;71.90;;;;;;5023009;28;20036;-68
2021/04/11 01:02:11;;;;;;;2.13;1.80;;;22.00;71.90;;;;;;5023916;28;20401;-67
2021/04/11 01:05:17;;;;;;;2.33;2.13;;;22.00;72.00;;;;;;5023979;28;20036;-67
2021/04/11 01:08:23;;;;;;;3.90;1.65;;;22.00;72.10;;;;;;5027062;28;20033;-67
2021/04/11 01:10:55;;;;;;;2.88;1.95;;;22.00;72.10;;;;;;5028232;28;20037;-67
2021/04/11 01:14:08;;;;;;;4.25;2.05;;;22.00;72.20;;;;;;5027931;28;20014;-67
2021/04/11 01:17:14;;;;;;;3.20;2.25;;;22.00;72.30;;;;;;5025710;28;20034;-67
2021/04/11 01:20:20;;;;;;;3.70;2.38;;;21.90;72.40;;;;;;5023476;28;20118;-66
2021/04/11 01:22:54;;;;;;;2.65;1.88;;;21.90;72.40;;;;;;5022095;28;20038;-66
2021/04/11 01:26:00;;;;;;;3.88;1.95;;;21.90;72.50;;;;;;5027945;28;20022;-67
2021/04/11 01:29:10;;;;;;;3.28;2.60;;;21.90;72.50;;;;;;5025056;28;20021;-67
2021/04/11 01:32:16;;;;;;;4.55;2.58;;;21.90;72.50;;;;;;5024687;28;20091;-68
2021/04/11 01:35:22;;;;;;;3.50;2.47;;;21.90;72.50;;;;;;5027169;28;20040;-67
2021/04/11 01:38:28;;;;;;;2.20;2.05;;;21.90;72.60;;;;;;5024046;28;20034;-67
2021/04/11 01:41:20;;;;;;;2.63;2.33;;;21.90;72.60;;;;;;5021125;28;20046;-68
2021/04/11 01:44:26;;;;;;;4.30;2.33;;;21.90;72.70;;;;;;5019388;28;20043;-67
2021/04/11 01:47:32;;;;;;;4.40;2.30;;;21.90;72.70;;;;;;5027163;28;20113;-67
2021/04/11 01:50:38;;;;;;;3.08;2.08;;;21.80;72.70;;;;;;5023685;28;20037;-67
2021/04/11 01:53:44;;;;;;;4.18;2.65;;;21.80;72.80;;;;;;5022098;28;20026;-66
2021/04/11 01:56:50;;;;;;;2.60;1.90;;;21.80;72.80;;;;;;5022900;28;20053;-66
2021/04/11 01:59:56;;;;;;;2.50;2.10;;;21.80;72.80;;;;;;5022474;28;20037;-66
2021/04/11 02:03:02;;;;;;;2.72;2.50;;;21.80;72.80;;;;;;5024067;28;20079;-66
2021/04/11 02:06:08;;;;;;;2.30;2.08;;;21.80;72.90;;;;;;5020660;28;20104;-66
2021/04/11 02:09:14;;;;;;;2.60;2.40;;;21.80;73.00;;;;;;5025071;28;20515;-66
2021/04/11 02:12:20;;;;;;;5.35;2.38;;;21.80;73.00;;;;;;5023944;28;20036;-66
2021/04/11 02:15:27;;;;;;;2.92;2.42;;;21.80;73.10;;;;;;5021579;28;20485;-67
2021/04/11 02:18:33;;;;;;;4.15;2.08;;;21.70;73.00;;;;;;5024014;28;20048;-67
2021/04/11 02:21:39;;;;;;;2.28;1.75;;;21.70;73.00;;;;;;5024058;28;20041;-68
2021/04/11 02:24:45;;;;;;;3.70;2.00;;;21.70;73.00;;;;;;5022955;28;20676;-68
2021/04/11 02:27:51;;;;;;;2.42;2.08;;;21.70;73.10;;;;;;5020727;28;20041;-67
2021/04/11 02:31:16;;;;;;;2.30;2.10;;;21.70;73.10;;;;;;5023282;28;20071;-67
2021/04/11 02:34:22;;;;;;;6.45;3.05;;;21.70;73.10;;;;;;5025870;28;20045;-67
2021/04/11 02:37:33;;;;;;;3.30;2.08;;;21.70;73.20;;;;;;5024025;28;20033;-67
2021/04/11 02:40:40;;;;;;;1.90;1.80;;;21.70;73.20;;;;;;5023213;28;20098;-68
2021/04/11 02:43:46;;;;;;;3.67;2.38;;;21.70;73.30;;;;;;5022946;28;20032;-66
2021/04/11 02:46:52;;;;;;;2.95;2.03;;;21.70;73.40;;;;;;5022304;28;20029;-66
2021/04/11 02:49:58;;;;;;;2.70;2.38;;;21.70;73.40;;;;;;5019833;28;20036;-67
2021/04/11 02:53:19;;;;;;;2.72;2.47;;;21.70;73.50;;;;;;5021682;28;20025;-68
2021/04/11 02:56:25;;;;;;;3.70;2.78;;;21.70;73.60;;;;;;5019545;28;20036;-67
2021/04/11 02:59:31;;;;;;;3.80;2.40;;;21.60;73.70;;;;;;5019451;28;20033;-67
2021/04/11 03:02:37;;;;;;;2.95;2.22;;;21.60;73.70;;;;;;5019327;28;20114;-66
2021/04/11 03:05:43;;;;;;;3.50;2.38;;;21.60;73.80;;;;;;5021654;28;21062;-68
2021/04/11 03:08:49;;;;;;;1.80;1.70;;;21.60;73.80;;;;;;5022418;28;20033;-67
2021/04/11 03:11:57;;;;;;;2.80;2.35;;;21.60;73.90;;;;;;5020131;28;20482;-68
2021/04/11 03:15:03;;;;;;;4.00;1.80;;;21.60;73.90;;;;;;5018540;28;20067;-66
2021/04/11 03:18:09;;;;;;;4.38;1.88;;;21.60;74.00;;;;;;5022535;28;20026;-70
2021/04/11 03:21:15;;;;;;;1.58;1.48;;;21.60;74.00;;;;;;5024008;28;20132;-68
2021/04/11 03:24:21;;;;;;;4.85;1.90;;;21.60;74.10;;;;;;5019280;28;20429;-67
2021/04/11 03:27:07;;;;;;;3.03;1.80;;;21.50;74.10;;;;;;5021554;28;20036;-67
2021/04/11 03:30:16;;;;;;;1.98;1.70;;;21.50;74.20;;;;;;5026433;28;20499;-67
2021/04/11 03:33:25;;;;;;;4.65;1.83;;;21.60;74.20;;;;;;5020205;28;20051;-67
2021/04/11 03:36:31;;;;;;;3.38;1.60;;;21.50;74.20;;;;;;5021422;28;20428;-67
2021/04/11 03:39:37;;;;;;;2.67;1.40;;;21.50;74.30;;;;;;5023782;28;20080;-67
2021/04/11 03:42:50;;;;;;;1.27;1.02;;;21.50;74.30;;;;;;5023011;28;20033;-68
2021/04/11 03:45:56;;;;;;;4.07;1.48;;;21.50;74.40;;;;;;5023711;28;20044;-66
2021/04/11 03:49:08;;;;;;;2.60;2.03;;;21.50;74.40;;;;;;5020667;28;20034;-66
2021/04/11 03:52:14;;;;;;;3.03;1.45;;;21.50;74.40;;;;;;5028713;28;20057;-66
2021/04/11 03:55:20;;;;;;;3.53;2.38;;;21.50;74.40;;;;;;5022527;28;20120;-67
2021/04/11 03:58:26;;;;;;;2.45;1.60;;;21.40;74.40;;;;;;5023434;28;20036;-69
2021/04/11 04:01:32;;;;;;;3.72;2.72;;;21.40;74.40;;;;;;5025379;28;20504;-67
2021/04/11 04:04:38;;;;;;;3.58;2.15;;;21.40;74.40;;;;;;5022179;28;20029;-71
2021/04/11 04:07:48;;;;;;;5.43;2.30;;;21.40;74.40;;;;;;5020804;28;20061;-66
2021/04/11 04:10:56;;;;;;;3.17;1.95;;;21.40;74.40;;;;;;5036494;28;20080;-66
2021/04/11 04:13:41;;;;;;;3.75;1.92;;;21.40;75.00;;;;;;5021903;28;20033;-66
2021/04/11 04:16:36;;;;;;;4.80;1.88;;;21.40;74.20;;;;;;5023678;28;20044;-67
2021/04/11 04:19:31;;;;;;;3.85;1.70;;;21.40;74.20;;;;;;5016378;28;20018;-67
2021/04/11 04:22:31;;;;;;;2.70;1.67;;;21.40;74.20;;;;;;5022970;28;20040;-71
2021/04/11 04:25:30;;;;;;;2.83;1.75;;;21.40;74.10;;;;;;5035889;28;20679;-70
2021/04/11 04:28:28;;;;;;;6.50;1.63;;;21.40;74.10;;;;;;5023803;28;21800;-66
2021/04/11 04:31:40;;;;;;;5.68;1.67;;;21.40;74.10;;;;;;5024435;28;20037;-67
2021/04/11 04:34:47;;;;;;;3.13;2.03;;;21.40;74.10;;;;;;5027276;28;20053;-66
2021/04/11 04:37:51;;;;;;;3.72;1.88;;;21.30;74.00;;;;;;5026328;28;20064;-72
2021/04/11 04:40:55;;;;;;;3.50;1.42;;;21.30;74.00;;;;;;5026763;28;20030;-68
2021/04/11 04:43:50;;;;;;;1.88;1.58;;;21.30;73.90;;;;;;5025344;28;20029;-66
2021/04/11 04:46:58;;;;;;;3.65;1.75;;;21.30;73.90;;;;;;5023203;28;20054;-67
2021/04/11 04:50:16;;;;;;;7.72;2.00;;;21.30;74.00;;;;;;5029190;28;20026;-66
2021/04/11 04:53:05;;;;;;;4.53;1.85;;;21.30;74.00;;;;;;5028380;28;20598;-67
2021/04/11 04:56:14;;;;;;;5.97;2.40;;;21.30;74.00;;;;;;5026640;28;20075;-69
2021/04/11 04:59:23;;;;;;;3.10;2.03;;;21.20;74.00;;;;;;5024223;28;20041;-67
2021/04/11 05:02:32;;;;;;;3.88;2.33;;;21.20;74.10;;;;;;5026120;28;20034;-67
2021/04/11 05:05:38;;;;;;;2.75;1.42;;;21.30;74.20;;;;;;5023827;28;20025;-71
2021/04/11 05:08:47;;;;;;;5.97;3.45;;;21.20;74.20;;;;;;5024036;28;20037;-72
2021/04/11 05:12:05;;;;;;;9.30;6.88;;;21.20;74.20;;;;;;5020371;28;20037;-67
2021/04/11 05:15:14;;;;;;;7.97;5.47;;;21.20;74.30;;;;;;5024977;28;20047;-67
2021/04/11 05:18:21;;;;;;;5.35;3.10;;;21.20;74.40;;;;;;5022124;28;20103;-66
2021/04/11 05:21:07;;;;;;;;;;;21.20;74.40;;;;;;5020247;28;20041;-66
2021/04/11 05:24:25;;;;;;;3.92;2.22;;;21.20;74.40;;;;;;5025001;28;19956;-66
2021/04/11 05:27:50;;;;;;;4.80;2.20;;;21.20;74.40;;;;;;5023810;28;20064;-70
2021/04/11 05:30:56;;;;;;;3.83;1.80;;;21.20;74.50;;;;;;5021393;28;20026;-68
2021/04/11 05:34:02;;;;;;;3.03;2.35;;;21.20;74.60;;;;;;5023957;28;20125;-68
2021/04/11 05:37:06;;;;;;;6.82;2.53;;;21.10;74.60;;;;;;5023898;28;20079;-67
2021/04/11 05:40:01;;;;;;;4.82;2.05;;;21.10;74.70;;;;;;5024171;28;20040;-67
2021/04/11 05:42:54;;;;;;;1.42;1.30;;;21.10;74.90;;;;;;5023218;28;20049;-67
2021/04/11 05:46:05;;;;;;;2.92;1.98;;;21.20;75.10;;;;;;5022036;28;20017;-67
2021/04/11 05:48:58;;;;;;;3.58;1.77;;;21.10;75.10;;;;;;5020072;28;20112;-67
2021/04/11 05:51:50;;;;;;;2.78;1.33;;;21.20;75.20;;;;;;5022355;28;20480;-71
2021/04/11 05:55:02;;;;;;;3.78;3.38;;;21.20;75.40;;;;;;5023668;28;20045;-71
2021/04/11 05:58:14;;;;;;;8.43;3.88;;;21.10;75.40;;;;;;5024672;28;20120;-68
2021/04/11 06:01:26;;;;;;;5.53;3.40;;;21.10;75.50;;;;;;5022820;28;20040;-68
2021/04/11 06:04:39;;;;;;;3.60;2.38;;;21.20;75.70;;;;;;5025050;28;20053;-68
2021/04/11 06:08:03;;;;;;;3.50;2.30;;;21.10;75.70;;;;;;5025760;28;20057;-68
2021/04/11 06:10:52;;;;;;;2.22;1.88;;;21.20;75.90;;;;;;5024422;28;20630;-68
2021/04/11 06:14:04;;;;;;;5.15;2.20;;;21.20;75.90;;;;;;5022404;28;20088;-67
2021/04/11 06:17:10;;;;;;;4.32;1.88;;;21.20;76.00;;;;;;5035304;28;20036;-67
2021/04/11 06:20:17;;;;;;;2.78;1.60;;;21.20;76.10;;;;;;5026781;28;20029;-72
2021/04/11 06:23:25;;;;;;;3.72;2.08;;;21.20;76.20;;;;;;5025819;28;20032;-67
2021/04/11 06:26:10;;;;;;;4.65;2.33;;;21.20;76.30;;;;;;5025472;28;20057;-67
2021/04/11 06:29:21;;;;;;;1.95;1.70;;;21.20;76.30;;;;;;5026470;28;20602;-69
2021/04/11 06:32:28;;;;;;;1.92;1.55;;;21.20;76.40;;;;;;5027360;28;20021;-69
2021/04/11 06:35:49;;;;;;;1.85;1.23;;;21.20;76.60;;;;;;5025184;28;20021;-71
2021/04/11 06:38:58;;;;;;;4.53;2.83;;;21.30;76.70;;;;;;5024371;28;20029;-68
2021/04/11 06:41:49;;;;;;;3.03;2.72;;;21.30;76.70;;;;;;5019081;28;20081;-69
2021/04/11 06:44:41;;;;;;;5.53;3.85;;;21.30;76.70;;;;;;5020446;28;20489;-66
2021/04/11 06:47:26;;;;;;;4.70;3.10;;;21.30;76.80;;;;;;5024304;28;20116;-68
2021/04/11 06:50:25;;;;;;;3.63;2.60;;;21.40;76.90;;;;;;5021226;28;20018;-71
2021/04/11 06:53:26;;;;;;;3.65;2.03;;;21.40;76.90;;;;;;5022554;28;20025;-66
2021/04/11 06:55:55;;;;;;;2.92;2.33;;;21.40;77.00;;;;;;5020896;28;20021;-67
2021/04/11 06:59:03;;;;;;;2.20;1.63;;;21.40;77.00;;;;;;5020127;28;20028;-68
2021/04/11 07:02:05;;;;;;;8.15;1.65;;;21.50;77.00;;;;;;5023590;28;20042;-65
2021/04/11 07:05:29;;;;;;;4.57;1.60;;;21.50;77.20;;;;;;5025535;28;20033;-67
2021/04/11 07:08:29;;;;;;;4.72;2.30;;;21.40;77.40;;;;;;5035769;28;20029;-68
2021/04/11 07:11:34;;;;;;;18.15;12.00;;;21.40;77.60;;;;;;5027047;28;20045;-70
2021/04/11 07:14:28;;;;;;;13.85;11.63;;;21.40;77.60;;;;;;5021863;28;20044;-71
2021/04/11 07:17:07;;;;;;;10.27;9.18;;;21.40;77.60;;;;;;5019418;28;20033;-71
2021/04/11 07:20:31;;;;;;;9.32;7.55;;;21.40;77.40;;;;;;5027607;28;20139;-74
2021/04/11 07:23:13;;;;;;;7.45;6.75;;;21.50;77.30;;;;;;5022196;28;20441;-67
2021/04/11 07:26:17;;;;;;;7.50;5.50;;;21.50;77.10;;;;;;5020334;28;20416;-67
2021/04/11 07:29:30;;;;;;;10.25;5.80;;;21.50;76.90;;;;;;5023291;28;20056;-67
2021/04/11 07:32:03;;;;;;;4.30;3.38;;;21.50;76.60;;;;;;5023589;28;20057;-70
2021/04/11 07:34:58;;;;;;;5.85;3.67;;;21.60;76.40;;;;;;5020958;28;20025;-70
2021/04/11 07:37:43;;;;;;;4.93;3.17;;;21.60;76.10;;;;;;5023199;28;20029;-68
2021/04/11 07:41:06;;;;;;;3.50;2.67;;;21.60;75.80;;;;;;5039061;28;20037;-73
2021/04/11 07:44:10;;;;;;;2.10;1.88;;;21.70;75.60;;;;;;5023230;28;20052;-69
2021/04/11 07:47:08;;;;;;;3.58;1.75;;;21.60;75.30;;;;;;5020238;28;20111;-74
2021/04/11 07:50:07;;;;;;;1.60;1.50;;;21.70;75.00;;;;;;5025945;28;20425;-68
2021/04/11 07:53:11;;;;;;;2.45;1.27;;;21.80;74.80;;;;;;5023983;28;20404;-67
2021/04/11 07:56:23;;;;;;;1.55;1.05;;;21.80;74.70;;;;;;5021807;28;20040;-70
2021/04/11 07:59:34;;;;;;;2.25;1.50;;;21.80;74.60;;;;;;5021580;28;20045;-67
2021/04/11 08:02:42;;;;;;;3.42;1.60;;;21.90;74.60;;;;;;5024806;28;20674;-69
2021/04/11 08:05:12;;;;;;;2.00;1.30;;;21.90;74.60;;;;;;5020923;28;20042;-71
2021/04/11 08:08:15;;;;;;;3.75;1.45;;;22.00;74.70;;;;;;5017993;28;20468;-72
2021/04/11 08:11:16;;;;;;;3.53;1.20;;;22.00;74.90;;;;;;5022302;28;20073;-72
2021/04/11 08:13:45;;;;;;;1.58;1.48;;;22.10;75.10;;;;;;5022642;28;20024;-71
2021/04/11 08:16:18;;;;;;;3.65;1.10;;;22.10;75.20;;;;;;5023114;28;20025;-72
2021/04/11 08:19:16;;;;;;;4.47;3.75;;;22.10;75.50;;;;;;5022645;28;20064;-71
2021/04/11 08:22:05;;;;;;;7.43;5.70;;;22.20;75.70;;;;;;5025579;28;20519;-72
2021/04/11 08:25:10;;;;;;;5.07;4.40;;;22.20;75.80;;;;;;5023818;28;20084;-71
2021/04/11 08:28:18;;;;;;;5.88;3.65;;;22.30;75.80;;;;;;5022205;28;20037;-70
2021/04/11 08:31:22;;;;;;;2.75;2.22;;;22.30;75.60;;;;;;5026640;28;20030;-71
2021/04/11 08:34:30;;;;;;;3.90;1.65;;;22.40;75.40;;;;;;5020720;28;20413;-71
2021/04/11 08:37:24;;;;;;;4.22;1.83;;;22.40;75.30;;;;;;5027059;28;20030;-68
2021/04/11 08:40:23;;;;;;;1.55;1.33;;;22.40;74.90;;;;;;5018687;28;20365;-68
2021/04/11 08:43:28;;;;;;;3.47;1.40;;;22.40;74.50;;;;;;5016831;28;20038;-68
2021/04/11 08:46:10;;;;;;;3.75;1.88;;;22.50;74.00;;;;;;5021031;28;20029;-69
2021/04/11 08:48:59;;;;;;;1.25;0.85;;;22.50;73.40;;;;;;5023492;28;20026;-72
2021/04/11 08:51:47;;;;;;;2.72;0.60;;;22.50;72.80;;;;;;5017729;28;20042;-71
2021/04/11 08:54:38;;;;;;;0.73;0.50;;;22.60;72.50;;;;;;5021779;28;20064;-69
2021/04/11 08:57:27;;;;;;;1.48;0.98;;;22.60;72.00;;;;;;5020176;28;20026;-69
2021/04/11 09:00:52;;;;;;;3.67;1.20;;;22.70;71.70;;;;;;5018523;28;20033;-70
2021/04/11 09:04:07;;;;;;;2.58;1.23;;;22.70;71.20;;;;;;5018073;28;20030;-69
2021/04/11 09:06:36;;;;;;;1.25;1.10;;;22.80;70.70;;;;;;5022674;28;20021;-69
2021/04/11 09:09:51;;;;;;;3.67;1.00;;;22.80;70.20;;;;;;5021833;28;20037;-73
2021/04/11 09:13:08;;;;;;;8.23;2.92;;;22.90;69.90;;;;;;5017744;28;20029;-69
2021/04/11 09:16:04;;;;;;;5.20;1.92;;;23.00;70.10;;;;;;5020552;28;20045;-70
2021/04/11 09:18:50;;;;;;;2.13;1.02;;;23.00;70.10;;;;;;5022307;28;20040;-72
2021/04/11 09:21:32;;;;;;;4.05;1.25;;;23.00;69.80;;;;;;5024843;28;20052;-71
2021/04/11 09:24:38;;;;;;;1.90;1.38;;;23.10;69.70;;;;;;5020810;28;20026;-70
2021/04/11 09:27:36;;;;;;;1.35;0.75;;;23.10;69.50;;;;;;5021881;28;20084;-70
2021/04/11 09:30:26;;;;;;;2.65;1.67;;;23.20;69.50;;;;;;5024778;28;20022;-74
2021/04/11 09:33:16;;;;;;;2.75;1.05;;;23.20;69.10;;;;;;5040759;28;20397;-72
2021/04/11 09:36:00;;;;;;;6.05;1.17;;;23.30;68.80;;;;;;5025670;28;20480;-75
2021/04/11 09:38:36;;;;;;;5.05;1.13;;;23.30;68.40;;;;;;5022532;28;20093;-67
2021/04/11 09:41:29;;;;;;;2.58;0.90;;;23.40;68.30;;;;;;5027890;28;20420;-67
2021/04/11 09:44:21;;;;;;;8.57;2.65;;;23.40;67.80;;;;;;5024075;28;20026;-66
2021/04/11 09:47:26;;;;;;;2.92;0.80;;;23.50;65.00;;;;;;5028216;28;20034;-75
2021/04/11 09:50:21;;;;;;;4.20;1.08;;;23.50;64.90;;;;;;5025051;28;20021;-68
2021/04/11 09:53:10;;;;;;;3.03;2.70;;;23.60;64.80;;;;;;5022495;28;20022;-72
2021/04/11 09:56:23;;;;;;;5.45;2.67;;;23.60;64.80;;;;;;5023674;28;20088;-68
2021/04/11 09:59:22;;;;;;;5.43;2.13;;;23.60;64.60;;;;;;5027228;28;20036;-68
2021/04/11 10:02:12;;;;;;;15.88;10.25;;;23.70;64.80;;;;;;5018993;28;20049;-67
2021/04/11 10:05:16;;;;;;;19.85;14.55;;;23.80;64.50;;;;;;5022545;28;20036;-69
2021/04/11 10:08:43;;;;;;;8.95;5.70;;;23.80;64.50;;;;;;5022481;28;20061;-74
2021/04/11 10:11:22;;;;;;;15.85;11.82;;;23.90;64.70;;;;;;5033046;28;20029;-70
2021/04/11 10:14:17;;;;;;;20.35;14.30;;;23.90;64.80;;;;;;5023422;28;20066;-68
2021/04/11 10:17:21;;;;;;;14.13;10.07;;;24.00;64.80;;;;;;5025656;28;20578;-68
2021/04/11 10:19:54;;;;;;;11.07;7.40;;;24.10;65.00;;;;;;5028330;28;20555;-67
2021/04/11 10:22:38;;;;;;;13.85;10.90;;;24.10;65.10;;;;;;5019831;28;20033;-75
2021/04/11 10:25:22;;;;;;;7.18;5.70;;;24.10;65.00;;;;;;5021321;28;20026;-68
2021/04/11 10:27:58;;;;;;;12.07;9.70;;;24.20;64.80;;;;;;5020813;28;20485;-71
2021/04/11 10:30:26;;;;;;;9.57;6.47;;;24.20;64.70;;;;;;5020425;28;20452;-75
2021/04/11 10:33:09;;;;;;;14.63;8.00;;;24.30;64.60;;;;;;5024627;28;20040;-68
2021/04/11 10:35:56;;;;;;;34.20;30.67;;;24.30;64.40;;;;;;5032701;28;20033;-69
2021/04/11 10:38:33;;;;;;;12.98;11.50;;;24.40;64.10;;;;;;5019288;28;20033;-72
2021/04/11 10:41:32;;;;;;;11.27;9.13;;;24.40;64.00;;;;;;5022935;28;20037;-68
2021/04/11 10:44:21;;;;;;;10.02;7.53;;;24.50;63.90;;;;;;5016825;28;20103;-70
2021/04/11 10:46:47;;;;;;;;;;;24.50;64.00;;;;;;5016678;28;20444;-73
2021/04/11 10:49:41;;;;;;;13.80;9.15;;;24.60;63.90;;;;;;5024209;28;20021;-69
2021/04/11 10:52:17;;;;;;;22.08;15.52;;;24.60;63.90;;;;;;5018261;28;20030;-73
2021/04/11 10:55:02;;;;;;;7.20;5.68;;;24.70;64.00;;;;;;5024387;28;20034;-68
2021/04/11 10:57:56;;;;;;;11.52;4.90;;;24.70;63.90;;;;;;5025274;28;20017;-74
2021/04/11 11:00:45;;;;;;;7.90;5.13;;;24.70;63.80;;;;;;5021410;28;20439;-70
2021/04/11 11:03:26;;;;;;;12.07;9.57;;;24.80;63.70;;;;;;5024085;28;20083;-68
2021/04/11 11:06:18;;;;;;;8.98;6.78;;;24.80;63.50;;;;;;5025485;28;20037;-72
2021/04/11 11:09:19;;;;;;;7.93;4.95;;;24.80;63.00;;;;;;5028089;28;20025;-71
2021/04/11 11:12:16;;;;;;;7.82;2.80;;;24.90;63.00;;;;;;5035474;28;20045;-74
2021/04/11 11:15:04;;;;;;;7.13;2.83;;;25.00;62.90;;;;;;5022228;28;20033;-76
2021/04/11 11:17:55;;;;;;;4.38;2.20;;;25.00;62.70;;;;;;5022333;28;20025;-74
2021/04/11 11:21:03;;;;;;;3.78;2.08;;;25.00;62.60;;;;;;5023926;28;20037;-73
2021/04/11 11:23:48;;;;;;;2.00;1.50;;;25.10;62.50;;;;;;5023043;28;20030;-74
2021/04/11 11:26:29;;;;;;;;;;;25.10;62.40;;;;;;5026589;28;20416;-71
2021/04/11 11:29:02;;;;;;;3.15;1.40;;;25.10;62.30;;;;;;5023223;28;19916;-68
2021/04/11 11:31:56;;;;;;;2.90;1.65;;;25.20;62.30;;;;;;5018043;28;20018;-70
2021/04/11 11:34:26;;;;;;;4.88;1.60;;;25.30;61.80;;;;;;5019074;28;20108;-69
2021/04/11 11:37:20;;;;;;;6.07;1.42;;;25.30;62.30;;;;;;5020646;28;20472;-67
2021/04/11 11:39:46;;;;;;;5.78;1.25;;;25.30;61.70;;;;;;5022187;28;20061;-72
2021/04/11 11:42:45;;;;;;;2.67;1.17;;;25.40;61.60;;;;;;5024424;28;20148;-76
2021/04/11 11:45:51;;;;;;;4.65;0.98;;;25.40;61.20;;;;;;5027835;28;20083;-71
2021/04/11 11:48:36;;;;;;;2.50;1.92;;;25.50;60.50;;;;;;5022699;28;20045;-73
2021/04/11 11:51:24;;;;;;;4.85;1.85;;;25.50;60.30;;;;;;5025250;28;20033;-66
2021/04/11 11:54:40;;;;;;;3.53;1.83;;;25.50;60.00;;;;;;5021376;28;20072;-67
2021/04/11 11:57:19;;;;;;;1.88;0.85;;;25.50;60.20;;;;;;5022833;28;20015;-67
2021/04/11 11:59:57;;;;;;;3.20;1.15;;;25.50;60.20;;;;;;5023647;28;20029;-72
2021/04/11 12:03:01;;;;;;;2.80;1.20;;;25.50;59.80;;;;;;5019774;28;20025;-71
2021/04/11 12:05:49;;;;;;;3.70;1.40;;;25.40;60.10;;;;;;5021744;28;20602;-69
2021/04/11 12:08:22;;;;;;;3.42;1.42;;;25.40;60.30;;;;;;5026179;28;20018;-68
2021/04/11 12:11:02;;;;;;;2.47;1.20;;;25.40;60.20;;;;;;5021662;28;21158;-69
2021/04/11 12:14:13;;;;;;;2.13;1.42;;;25.40;59.90;;;;;;5025026;28;20542;-69
2021/04/11 12:16:47;;;;;;;3.15;1.00;;;25.40;60.10;;;;;;5022055;28;20095;-68
2021/04/11 12:19:19;;;;;;;3.20;1.00;;;25.40;59.90;;;;;;5021014;28;20034;-68
2021/04/11 12:22:18;;;;;;;2.78;0.80;;;25.40;59.40;;;;;;5026323;28;20377;-72
2021/04/11 12:24:56;;;;;;;2.53;1.00;;;25.40;59.40;;;;;;5023835;28;20501;-73
2021/04/11 12:27:49;;;;;;;2.67;1.05;;;25.40;59.30;;;;;;5019914;28;20034;-67
2021/04/11 12:30:38;;;;;;;3.13;0.90;;;25.40;58.90;;;;;;5023742;28;20068;-70
2021/04/11 12:33:16;;;;;;;3.10;1.08;;;25.40;58.90;;;;;;5022172;28;20402;-69
2021/04/11 12:35:45;;;;;;;4.28;3.30;;;25.50;58.70;;;;;;5022764;28;20025;-66
2021/04/11 12:38:36;;;;;;;3.08;1.50;;;25.50;58.50;;;;;;5022190;28;20061;-65
2021/04/11 12:41:19;;;;;;;3.03;1.70;;;25.50;58.40;;;;;;5022448;28;20044;-69
2021/04/11 12:43:51;;;;;;;4.50;1.50;;;25.50;58.40;;;;;;5028231;28;20175;-68
2021/04/11 12:46:59;;;;;;;2.42;1.33;;;25.50;58.50;;;;;;5026794;28;20120;-70
2021/04/11 12:49:45;;;;;;;4.70;1.30;;;25.50;58.60;;;;;;5026267;28;20435;-70
2021/04/11 12:52:24;;;;;;;2.58;1.13;;;25.50;58.60;;;;;;5019027;28;20057;-73
2021/04/11 12:55:01;;;;;;;2.13;1.42;;;25.40;58.50;;;;;;5031956;28;20024;-72
2021/04/11 12:57:45;;;;;;;2.75;0.90;;;25.40;58.60;;;;;;5022724;28;20025;-72
2021/04/11 13:00:22;;;;;;;2.40;0.77;;;25.40;59.10;;;;;;5020506;28;20030;-70
2021/04/11 13:02:57;;;;;;;3.13;1.00;;;25.40;58.60;;;;;;5024849;28;20045;-69
2021/04/11 13:05:33;;;;;;;1.17;0.93;;;25.40;58.60;;;;;;5029877;28;20036;-72
2021/04/11 13:08:28;;;;;;;2.50;0.95;;;25.40;58.70;;;;;;5028451;28;20535;-68
2021/04/11 13:11:03;;;;;;;10.00;6.38;;;25.50;58.50;;;;;;5025732;28;20476;-71
2021/04/11 13:14:04;;;;;;;2.30;1.92;;;25.40;58.20;;;;;;5027162;28;20085;-71
2021/04/11 13:16:42;;;;;;;4.90;2.45;;;25.40;58.30;;;;;;5023514;28;20034;-73
2021/04/11 13:19:33;;;;;;;2.40;2.08;;;25.40;58.30;;;;;;5021729;28;20704;-72
2021/04/11 13:22:13;;;;;;;5.85;1.70;;;25.40;58.10;;;;;;5025816;28;20041;-71
2021/04/11 13:24:56;;;;;;;7.20;1.45;;;25.40;57.60;;;;;;5030215;28;20372;-70
2021/04/11 13:27:55;;;;;;;3.45;1.40;;;25.30;57.50;;;;;;5025788;28;20022;-69
2021/04/11 13:30:35;;;;;;;3.35;1.33;;;25.30;57.60;;;;;;5028280;28;20433;-68
2021/04/11 13:33:25;;;;;;;7.63;1.25;;;25.30;57.60;;;;;;5021863;28;20065;-67
2021/04/11 13:35:59;;;;;;;2.88;0.95;;;25.30;57.50;;;;;;5022425;28;20017;-67
2021/04/11 13:38:29;;;;;;;2.58;1.20;;;25.20;57.60;;;;;;5021539;28;20033;-66
2021/04/11 13:41:25;;;;;;;6.47;1.35;;;25.20;57.70;;;;;;5026118;28;20044;-67
2021/04/11 13:44:27;;;;;;;1.67;0.95;;;25.20;57.60;;;;;;5023685;28;20026;-68
2021/04/11 13:47:15;;;;;;;1.67;1.23;;;25.20;57.50;;;;;;5027238;28;20473;-68
2021/04/11 13:49:51;;;;;;;2.53;1.13;;;25.30;57.40;;;;;;5024993;28;20033;-67
2021/04/11 13:52:42;;;;;;;6.15;1.23;;;25.30;57.40;;;;;;5026023;28;20112;-67
2021/04/11 13:55:13;;;;;;;4.05;1.00;;;25.30;57.40;;;;;;5026551;28;20550;-69
2021/04/11 13:58:01;;;;;;;2.55;0.93;;;25.30;57.60;;;;;;5023391;28;20638;-68
2021/04/11 14:01:02;;;;;;;4.07;1.10;;;25.40;57.60;;;;;;5024568;28;20037;-66
2021/04/11 14:03:40;;;;;;;0.80;0.70;;;25.40;57.60;;;;;;5034790;28;20095;-68
2021/04/11 14:06:39;;;;;;;3.47;0.90;;;25.40;57.70;;;;;;5020346;28;20041;-69
2021/04/11 14:09:06;;;;;;;4.38;1.08;;;25.40;57.70;;;;;;5027505;28;20071;-74
2021/04/11 14:11:45;;;;;;;4.05;0.88;;;25.40;57.90;;;;;;5022580;28;20022;-71
2021/04/11 14:14:13;;;;;;;3.22;0.80;;;25.40;58.20;;;;;;5024495;28;20053;-66
2021/04/11 14:16:46;;;;;;;4.50;2.58;;;25.40;58.60;;;;;;5021687;28;20018;-68
2021/04/11 14:19:24;;;;;;;7.82;5.10;;;25.40;59.00;;;;;;5019888;28;20029;-75
2021/04/11 14:22:03;;;;;;;3.35;1.50;;;25.40;59.30;;;;;;5024623;28;20072;-69
2021/04/11 14:24:40;;;;;;;3.30;1.73;;;25.40;59.40;;;;;;5027034;28;20432;-66
2021/04/11 14:27:19;;;;;;;3.53;1.40;;;25.40;59.70;;;;;;5026959;28;20021;-67
2021/04/11 14:30:01;;;;;;;3.72;1.17;;;25.30;60.00;;;;;;5025939;28;20030;-67
2021/04/11 14:32:40;;;;;;;2.70;1.45;;;25.30;60.50;;;;;;5025292;28;20434;-66
2021/04/11 14:35:13;;;;;;;4.03;1.25;;;25.30;60.70;;;;;;5027386;28;20045;-67
2021/04/11 14:37:53;;;;;;;1.58;0.98;;;25.30;60.90;;;;;;5024335;28;20125;-69
2021/04/11 14:40:31;;;;;;;1.63;1.00;;;25.30;61.00;;;;;;5021043;28;20037;-65
2021/04/11 14:43:18;;;;;;;2.22;0.80;;;25.20;61.20;;;;;;5024836;28;20044;-68
2021/04/11 14:46:01;;;;;;;3.88;0.80;;;25.20;61.50;;;;;;5019728;28;20034;-70
2021/04/11 14:48:33;;;;;;;4.85;1.15;;;25.20;61.60;;;;;;5024194;28;20036;-72
2021/04/11 14:51:26;;;;;;;5.20;0.93;;;25.20;61.80;;;;;;5023834;28;20017;-68
2021/04/11 14:54:15;;;;;;;3.60;1.08;;;25.20;61.90;;;;;;5026463;28;20065;-69
2021/04/11 14:57:07;;;;;;;5.72;1.60;;;25.20;61.90;;;;;;5023328;28;20037;-66
2021/04/11 14:59:36;;;;;;;3.88;2.60;;;25.10;61.80;;;;;;5022846;28;20032;-67
2021/04/11 15:02:24;;;;;;;3.25;1.58;;;25.10;62.00;;;;;;5021849;28;20029;-67